Time;durP1;ratioP1;P1;durP2;ratioP2;P2;SDS_P1;SDS_P2;PMS_P1;PMS_P2;Temp;Humidity;BMP_temperature;BMP_pressure;BME280_temperature;BME280_humidity;BME280_pressure;Samples;Min_cycle;Max_cycle;Signal;HPM_P1;HPM_P2
2021/03/02 00:00:53;;;;;;;11.93;8.08;;;;;;;2.82;74.20;101652.01;1786136;79;21191;-53
2021/03/02 00:03:24;;;;;;;11.12;8.30;;;;;;;2.80;74.32;101641.35;1788433;80;21049;-53
2021/03/02 00:06:02;;;;;;;11.15;7.80;;;;;;;2.83;74.32;101645.53;1777696;79;21041;-53
2021/03/02 00:08:32;;;;;;;11.63;7.62;;;;;;;2.81;74.37;101636.75;1785240;79;21014;-53
2021/03/02 00:11:02;;;;;;;11.22;7.40;;;;;;;2.79;74.43;101619.80;1811223;78;21204;-53
2021/03/02 00:13:31;;;;;;;9.85;7.00;;;;;;;2.74;74.60;101620.39;1764665;79;20973;-53
2021/03/02 00:16:03;;;;;;;11.08;8.10;;;;;;;2.72;74.77;101620.59;1797063;78;20972;-53
2021/03/02 00:18:45;;;;;;;12.82;10.00;;;;;;;2.73;74.80;101615.48;1811635;78;21045;-53
2021/03/02 00:21:20;;;;;;;11.73;7.70;;;;;;;2.75;74.81;101607.16;1823947;78;21041;-53
2021/03/02 00:23:52;;;;;;;8.70;6.58;;;;;;;2.72;74.77;101609.73;1779470;79;21666;-52
2021/03/02 00:26:23;;;;;;;11.20;7.80;;;;;;;2.68;74.86;101597.58;1761186;79;21029;-53
2021/03/02 00:29:04;;;;;;;11.63;7.58;;;;;;;2.66;74.95;101592.02;1807030;78;21089;-52
2021/03/02 00:31:34;;;;;;;8.80;7.37;;;;;;;2.63;75.08;101594.62;1784449;80;21057;-53
2021/03/02 00:34:12;;;;;;;13.55;9.70;;;;;;;2.61;75.16;101590.41;1770111;80;21643;-53
2021/03/02 00:36:43;;;;;;;9.85;7.08;;;;;;;2.57;75.35;101584.52;1759212;80;21145;-53
2021/03/02 00:39:20;;;;;;;10.25;7.70;;;;;;;2.57;75.46;101581.80;1772172;80;21034;-53
2021/03/02 00:41:47;;;;;;;10.95;7.85;;;;;;;2.57;75.55;101580.45;1771188;80;21088;-52
2021/03/02 00:44:16;;;;;;;10.30;7.42;;;;;;;2.57;75.56;101577.23;1759159;80;21040;-53
2021/03/02 00:46:44;;;;;;;12.00;8.28;;;;;;;2.56;75.61;101566.05;1759129;80;21130;-53
2021/03/02 00:49:17;;;;;;;13.13;8.33;;;;;;;2.58;75.58;101564.50;1737192;80;22223;-53
2021/03/02 00:51:49;;;;;;;9.33;7.47;;;;;;;2.56;75.58;101553.02;1785046;80;21085;-51
2021/03/02 00:54:20;;;;;;;10.85;7.40;;;;;;;2.54;75.66;101551.00;1780442;79;21064;-52
2021/03/02 00:56:49;;;;;;;11.60;7.87;;;;;;;2.50;75.65;101537.49;1784898;80;21041;-53
2021/03/02 00:59:18;;;;;;;10.90;7.33;;;;;;;2.43;75.84;101530.66;1783051;80;21103;-52
2021/03/02 01:01:56;;;;;;;10.20;8.05;;;;;;;2.39;76.12;101536.97;1751791;81;21214;-52
2021/03/02 01:04:28;;;;;;;12.37;7.70;;;;;;;2.35;76.22;101524.83;1772521;80;21103;-53
2021/03/02 01:07:00;;;;;;;13.93;8.50;;;;;;;2.34;76.27;101519.07;1777436;80;21100;-54
2021/03/02 01:09:35;;;;;;;11.35;8.50;;;;;;;2.29;76.44;101520.18;1760291;80;21036;-54
2021/03/02 01:12:05;;;;;;;10.00;8.08;;;;;;;2.27;76.57;101525.47;1776733;79;21606;-52
2021/03/02 01:14:36;;;;;;;10.50;7.62;;;;;;;2.25;76.73;101527.84;1753144;81;21211;-52
2021/03/02 01:17:04;;;;;;;10.85;8.23;;;;;;;2.25;76.73;101523.77;1787302;80;21096;-52
2021/03/02 01:19:32;;;;;;;11.35;7.65;;;;;;;2.22;76.81;101516.55;1758712;81;20970;-52
2021/03/02 01:22:06;;;;;;;12.60;8.65;;;;;;;2.22;76.96;101508.42;1779082;79;21044;-53
2021/03/02 01:24:42;;;;;;;11.48;8.40;;;;;;;2.21;76.95;101499.95;1748312;81;21066;-53
2021/03/02 01:27:10;;;;;;;11.75;8.03;;;;;;;2.20;77.02;101499.62;1772473;79;21377;-52
2021/03/02 01:29:38;;;;;;;12.50;8.63;;;;;;;2.18;77.03;101482.20;1754667;81;21053;-52
2021/03/02 01:32:12;;;;;;;11.68;8.18;;;;;;;2.16;77.04;101478.85;1784911;80;21050;-53
2021/03/02 01:34:44;;;;;;;11.08;8.20;;;;;;;2.13;77.21;101472.96;1763242;81;21158;-53
2021/03/02 01:37:16;;;;;;;15.93;9.03;;;;;;;2.11;77.33;101465.55;1772903;79;21581;-53
2021/03/02 01:39:45;;;;;;;12.20;8.30;;;;;;;2.07;77.45;101464.58;1754512;81;21066;-52
2021/03/02 01:42:15;;;;;;;13.62;9.55;;;;;;;2.05;77.52;101461.20;1752832;81;21805;-52
2021/03/02 01:44:46;;;;;;;10.70;8.43;;;;;;;2.02;77.57;101458.88;1778435;80;21167;-53
2021/03/02 01:47:15;;;;;;;11.45;8.90;;;;;;;2.02;77.64;101457.53;1750300;81;21109;-51
2021/03/02 01:50:02;;;;;;;15.93;9.90;;;;;;;1.98;77.78;101457.58;1773713;80;21145;-52
2021/03/02 01:52:30;;;;;;;16.27;9.68;;;;;;;1.98;77.96;101454.05;1777016;79;22226;-53
2021/03/02 01:55:06;;;;;;;14.73;10.43;;;;;;;1.96;78.01;101452.88;1713400;81;21626;-53
2021/03/02 01:57:38;;;;;;;14.03;9.95;;;;;;;1.94;78.08;101440.55;1761705;81;21069;-53
2021/03/02 02:00:30;;;;;;;14.33;10.45;;;;;;;1.94;78.13;101443.26;1758578;81;21836;-52
2021/03/02 02:03:21;;;;;;;16.32;10.13;;;;;;;1.93;78.30;101442.92;1757780;80;21141;-53
2021/03/02 02:06:16;;;;;;;13.88;9.45;;;;;;;1.95;78.28;101455.27;1760382;81;22279;-52
2021/03/02 02:08:59;;;;;;;13.98;9.80;;;;;;;1.94;78.32;101439.20;1760207;81;21080;-52
2021/03/02 02:12:06;;;;;;;14.33;11.43;;;;;;;1.94;78.35;101425.12;1844752;76;22741;-53
2021/03/02 02:15:03;;;;;;;14.25;10.40;;;;;;;1.86;78.52;101430.68;1813695;79;21025;-52
2021/03/02 02:17:46;;;;;;;14.03;9.83;;;;;;;1.86;78.60;101427.97;1815217;79;21583;-54
2021/03/02 02:20:56;;;;;;;13.40;9.25;;;;;;;1.88;78.63;101423.19;1815329;79;21033;-54
2021/03/02 02:23:56;;;;;;;14.43;10.28;;;;;;;1.90;78.62;101423.82;1774874;79;21030;-53
2021/03/02 02:26:50;;;;;;;13.85;9.65;;;;;;;1.90;78.57;101413.84;1815426;79;20993;-54
2021/03/02 02:29:23;;;;;;;14.60;9.35;;;;;;;1.90;78.57;101424.68;1796249;79;21579;-53
2021/03/02 02:31:53;;;;;;;14.80;9.68;;;;;;;1.90;78.54;101419.76;1783095;80;21198;-54
2021/03/02 02:34:20;;;;;;;14.15;11.43;;;;;;;1.87;78.67;101419.65;1783110;80;21040;-54
2021/03/02 02:36:50;;;;;;;16.80;10.90;;;;;;;1.86;78.73;101416.61;1783191;80;21060;-53
2021/03/02 02:39:18;;;;;;;12.37;9.70;;;;;;;1.88;78.77;101417.77;1752952;80;21022;-53
2021/03/02 02:41:49;;;;;;;14.93;10.40;;;;;;;1.85;78.74;101405.44;1782979;79;21061;-53
2021/03/02 02:44:21;;;;;;;16.10;10.23;;;;;;;1.81;78.89;101389.77;1783315;80;22194;-53
2021/03/02 02:46:53;;;;;;;13.13;9.43;;;;;;;1.80;78.95;101393.49;1783445;80;21711;-53
2021/03/02 02:49:21;;;;;;;12.60;9.33;;;;;;;1.82;79.00;101394.16;1753549;80;21793;-53
2021/03/02 02:51:50;;;;;;;15.55;10.53;;;;;;;1.83;79.02;101403.94;1753500;80;20993;-53
2021/03/02 02:56:55;;;;;;;17.10;11.55;;;;;;;1.80;78.96;101396.20;1783356;80;21205;-53
2021/03/02 02:59:30;;;;;;;14.20;10.93;;;;;;;1.77;79.05;101395.23;1783100;79;21041;-52
2021/03/02 03:02:03;;;;;;;18.82;15.15;;;;;;;1.78;79.08;101392.86;1783120;79;21021;-52
2021/03/02 03:04:51;;;;;;;20.37;11.65;;;;;;;1.76;79.14;101386.78;1783028;80;21026;-53
2021/03/02 03:07:44;;;;;;;13.55;10.35;;;;;;;1.75;79.25;101383.77;1783146;80;21014;-53
2021/03/02 03:10:13;;;;;;;14.23;9.95;;;;;;;1.72;79.29;101373.63;1781723;78;21197;-53
2021/03/02 03:12:48;;;;;;;14.53;10.10;;;;;;;1.71;79.31;101386.00;1783210;79;21033;-53
2021/03/02 03:15:26;;;;;;;14.98;10.13;;;;;;;1.69;79.42;101369.95;1783263;80;21065;-53
2021/03/02 03:18:14;;;;;;;15.18;11.48;;;;;;;1.73;79.54;101372.59;1797212;79;27631;-52
2021/03/02 03:20:40;;;;;;;13.43;9.70;;;;;;;1.73;79.46;101394.27;1786199;80;21037;-52
2021/03/02 03:23:08;;;;;;;15.55;13.38;;;;;;;1.73;79.40;101384.79;1786857;80;22683;-53
2021/03/02 03:25:39;;;;;;;13.60;11.50;;;;;;;1.73;79.49;101389.37;1786268;80;21054;-53
2021/03/02 03:28:05;;;;;;;16.07;12.20;;;;;;;1.73;79.49;101392.91;1782478;80;21030;-53
2021/03/02 03:30:39;;;;;;;12.18;10.72;;;;;;;1.72;79.57;101377.68;1755247;81;21026;-53
2021/03/02 03:33:10;;;;;;;13.93;10.95;;;;;;;1.73;79.57;101373.13;1755852;81;21057;-52
2021/03/02 03:35:39;;;;;;;15.70;10.98;;;;;;;1.76;79.50;101374.59;1755677;81;21611;-53
2021/03/02 03:38:14;;;;;;;15.55;11.22;;;;;;;1.76;79.52;101366.45;1755511;81;21053;-53
2021/03/02 03:40:42;;;;;;;15.43;11.85;;;;;;;1.78;79.55;101368.48;1755333;81;21678;-53
2021/03/02 03:43:11;;;;;;;13.80;11.38;;;;;;;1.79;79.48;101363.39;1755470;81;21072;-52
2021/03/02 03:45:43;;;;;;;15.43;11.03;;;;;;;1.79;79.50;101363.39;1755170;81;21005;-53
2021/03/02 03:48:15;;;;;;;25.20;13.62;;;;;;;1.80;79.56;101367.27;1754960;81;21185;-52
2021/03/02 03:50:48;;;;;;;14.50;10.65;;;;;;;1.81;79.49;101358.61;1755243;81;20998;-53
2021/03/02 03:53:20;;;;;;;19.20;13.65;;;;;;;1.84;79.52;101371.27;1755330;81;22221;-53
2021/03/02 03:55:55;;;;;;;19.27;14.85;;;;;;;1.84;79.46;101363.64;1755543;81;21013;-54
2021/03/02 03:58:27;;;;;;;;;;;;;;;1.85;79.43;101369.39;1758386;81;20994;-53
2021/03/02 04:01:00;;;;;;;17.87;11.33;;;;;;;1.87;79.50;101367.31;1755510;81;21213;-53
2021/03/02 04:03:36;;;;;;;18.92;12.80;;;;;;;1.85;79.45;101357.20;1755340;81;21053;-52
2021/03/02 04:06:05;;;;;;;18.07;13.03;;;;;;;1.85;79.42;101353.13;1755459;81;21057;-52
2021/03/02 04:08:35;;;;;;;16.65;12.78;;;;;;;1.84;79.47;101360.43;1754979;81;21053;-53
2021/03/02 04:11:09;;;;;;;;;;;;;;;1.87;79.42;101359.18;1730435;81;21049;-53
2021/03/02 04:13:41;;;;;;;16.48;12.95;;;;;;;1.86;79.44;101355.64;1755263;81;22151;-53
2021/03/02 04:16:11;;;;;;;17.65;11.65;;;;;;;1.86;79.38;101359.71;1755170;81;21026;-53
2021/03/02 04:18:39;;;;;;;17.07;11.43;;;;;;;1.87;79.34;101351.05;1748187;82;21073;-53
2021/03/02 04:21:12;;;;;;;22.77;12.03;;;;;;;1.87;79.25;101349.70;1747840;82;21046;-53
2021/03/02 04:23:46;;;;;;;;;;;;;;;1.90;79.36;101349.31;1750103;82;21041;-53
2021/03/02 04:26:20;;;;;;;18.98;12.88;;;;;;;1.92;79.12;101343.20;1747625;82;21990;-53
2021/03/02 04:28:53;;;;;;;20.70;14.13;;;;;;;1.87;79.17;101334.80;1747422;80;21058;-53
2021/03/02 04:31:24;;;;;;;20.48;14.35;;;;;;;1.79;79.38;101330.36;1747488;82;21058;-53
2021/03/02 04:33:53;;;;;;;18.12;12.47;;;;;;;1.76;79.55;101341.58;1747145;82;21037;-53
2021/03/02 04:36:28;;;;;;;15.48;12.35;;;;;;;1.78;79.70;101333.27;1747217;82;21592;-53
2021/03/02 04:38:57;;;;;;;17.52;11.75;;;;;;;1.78;79.63;101338.16;1747435;82;21540;-53
2021/03/02 04:41:25;;;;;;;13.85;10.98;;;;;;;1.77;79.67;101329.70;1747390;82;22168;-53
2021/03/02 04:43:53;;;;;;;16.90;11.18;;;;;;;1.79;79.62;101340.37;1747357;82;21576;-53
2021/03/02 04:46:28;;;;;;;16.55;10.50;;;;;;;1.78;79.58;101319.72;1747414;82;21069;-53
2021/03/02 04:48:55;;;;;;;16.07;13.00;;;;;;;1.76;79.62;101322.63;1747047;82;21035;-53
2021/03/02 04:51:32;;;;;;;17.35;12.65;;;;;;;1.75;79.72;101332.30;1747428;82;22077;-53
2021/03/02 04:54:04;;;;;;;16.70;11.53;;;;;;;1.73;79.89;101329.78;1746746;82;21105;-53
2021/03/02 04:56:30;;;;;;;17.07;11.60;;;;;;;1.77;79.90;101326.98;1746971;82;21065;-53
2021/03/02 04:59:03;;;;;;;14.18;10.65;;;;;;;1.79;79.80;101322.76;1746548;82;21042;-52
2021/03/02 05:01:33;;;;;;;16.40;10.40;;;;;;;1.79;79.76;101324.11;1747475;82;21065;-53
2021/03/02 05:04:04;;;;;;;14.03;10.78;;;;;;;1.75;79.76;101321.47;1747342;82;21206;-53
2021/03/02 05:06:32;;;;;;;13.78;10.55;;;;;;;1.76;79.80;101323.98;1747323;82;21042;-53
2021/03/02 05:09:06;;;;;;;13.70;10.08;;;;;;;1.73;79.75;101313.00;1747441;82;21042;-53
2021/03/02 05:11:38;;;;;;;12.68;9.85;;;;;;;1.77;79.79;101325.63;1747237;82;21354;-54
2021/03/02 05:14:05;;;;;;;11.90;10.15;;;;;;;1.79;79.78;101312.75;1747233;82;20995;-53
2021/03/02 05:16:37;;;;;;;14.93;10.70;;;;;;;1.83;79.63;101326.23;1746965;82;21713;-52
2021/03/02 05:19:09;;;;;;;15.58;10.30;;;;;;;1.85;79.37;101324.16;1747079;82;21058;-53
2021/03/02 05:21:44;;;;;;;14.33;10.00;;;;;;;1.84;79.39;101325.70;1746930;82;21057;-52
2021/03/02 05:24:15;;;;;;;12.95;9.65;;;;;;;1.84;79.33;101325.21;1747081;82;21010;-54
2021/03/02 05:26:43;;;;;;;14.98;10.50;;;;;;;1.84;79.49;101329.77;1747435;82;21057;-54
2021/03/02 05:29:18;;;;;;;12.03;9.35;;;;;;;1.83;79.53;101324.02;1747305;80;22279;-54
2021/03/02 05:31:43;;;;;;;17.20;11.05;;;;;;;1.79;79.46;101317.34;1746705;82;21069;-54
2021/03/02 05:34:14;;;;;;;12.78;9.63;;;;;;;1.75;79.63;101314.16;1747157;82;21156;-54
2021/03/02 05:36:42;;;;;;;12.55;10.32;;;;;;;1.78;79.81;101311.59;1746693;82;21062;-53
2021/03/02 05:39:11;;;;;;;15.55;11.10;;;;;;;1.81;79.73;101315.27;1747054;82;21050;-54
2021/03/02 05:41:42;;;;;;;16.85;11.55;;;;;;;1.85;79.78;101315.20;1747136;82;21158;-54
2021/03/02 05:44:14;;;;;;;15.60;11.93;;;;;;;1.90;79.69;101324.42;1747140;82;21077;-54
2021/03/02 05:46:44;;;;;;;17.00;13.25;;;;;;;1.90;79.47;101306.81;1747215;82;21022;-54
2021/03/02 05:49:16;;;;;;;13.43;11.22;;;;;;;1.87;79.52;101305.00;1747086;82;21058;-53
2021/03/02 05:51:48;;;;;;;17.77;13.13;;;;;;;1.92;79.59;101302.55;1747475;82;20982;-53
2021/03/02 05:54:20;;;;;;;19.48;15.68;;;;;;;1.95;79.38;101307.58;1747217;82;21685;-53
2021/03/02 05:56:54;;;;;;;15.32;11.85;;;;;;;1.90;79.47;101319.01;1747000;82;21121;-53
2021/03/02 05:59:22;;;;;;;16.05;10.58;;;;;;;1.90;79.58;101314.09;1747210;82;21053;-53
2021/03/02 06:01:54;;;;;;;20.95;14.03;;;;;;;1.93;79.50;101319.14;1747113;82;21698;-53
2021/03/02 06:04:25;;;;;;;19.07;12.30;;;;;;;1.96;79.48;101302.98;1747204;82;21010;-55
2021/03/02 06:07:02;;;;;;;19.62;12.78;;;;;;;1.98;79.40;101307.19;1747416;82;22270;-53
2021/03/02 06:09:30;;;;;;;28.92;14.55;;;;;;;2.01;79.35;101298.66;1747328;82;21026;-53
2021/03/02 06:12:07;;;;;;;20.62;13.53;;;;;;;2.04;79.33;101300.15;1747257;82;21066;-53
2021/03/02 06:14:35;;;;;;;24.32;15.30;;;;;;;2.04;79.20;101294.23;1747163;82;21061;-53
2021/03/02 06:17:14;;;;;;;23.32;14.33;;;;;;;2.03;79.10;101293.90;1746764;81;21654;-53
2021/03/02 06:19:53;;;;;;;26.42;15.68;;;;;;;1.96;79.15;101297.57;1741832;82;21628;-53
2021/03/02 06:22:39;;;;;;;27.20;15.63;;;;;;;1.92;79.46;101288.18;1739709;82;21329;-53
2021/03/02 06:25:29;;;;;;;23.15;15.98;;;;;;;1.93;79.49;101296.11;1741579;82;21236;-53
2021/03/02 06:28:00;;;;;;;24.15;14.65;;;;;;;1.97;79.47;101296.05;1741454;80;21014;-52
2021/03/02 06:30:30;;;;;;;20.45;13.88;;;;;;;2.01;79.51;101297.84;1741581;82;21014;-54
2021/03/02 06:32:58;;;;;;;20.40;15.25;;;;;;;2.04;79.30;101307.78;1741934;82;21396;-54
2021/03/02 06:35:43;;;;;;;22.65;14.23;;;;;;;1.98;79.39;101296.34;1741328;82;21058;-54
2021/03/02 06:38:09;;;;;;;20.92;12.18;;;;;;;1.97;79.57;101297.90;1741688;82;21666;-54
2021/03/02 06:40:45;;;;;;;22.82;15.72;;;;;;;2.03;79.55;101297.97;1741665;82;21062;-54
2021/03/02 06:43:43;;;;;;;21.73;15.70;;;;;;;2.07;79.42;101302.47;1741641;82;21026;-54
2021/03/02 06:46:20;;;;;;;24.63;16.45;;;;;;;2.08;79.39;101291.95;1741426;82;21201;-54
2021/03/02 06:48:56;;;;;;;23.25;14.93;;;;;;;2.10;79.31;101298.53;1741790;82;21010;-54
2021/03/02 06:51:31;;;;;;;30.32;16.82;;;;;;;2.07;79.35;101308.73;1741678;82;21078;-54
2021/03/02 06:54:07;;;;;;;22.27;16.23;;;;;;;2.07;79.28;101306.03;1741395;81;21038;-54
2021/03/02 06:56:40;;;;;;;28.87;18.52;;;;;;;2.06;79.43;101301.64;1740084;82;21553;-54
2021/03/02 06:59:17;;;;;;;20.08;14.68;;;;;;;2.08;79.53;101306.86;1739984;82;21174;-54
2021/03/02 07:01:49;;;;;;;24.18;16.15;;;;;;;2.12;79.58;101304.61;1704727;83;21059;-54
2021/03/02 07:04:32;;;;;;;28.38;17.73;;;;;;;2.17;79.50;101304.34;1786393;78;22765;-54
2021/03/02 07:07:25;;;;;;;30.65;18.45;;;;;;;2.12;79.49;101300.02;1770887;80;20987;-53
2021/03/02 07:09:57;;;;;;;29.52;20.68;;;;;;;2.14;79.41;101298.46;1732613;81;21888;-54
2021/03/02 07:12:24;;;;;;;28.40;17.32;;;;;;;2.11;79.40;101301.56;1726292;82;21086;-53
2021/03/02 07:15:00;;;;;;;29.75;18.45;;;;;;;2.08;79.54;101291.42;1760398;81;21037;-54
2021/03/02 07:17:44;;;;;;;30.08;19.02;;;;;;;2.15;79.60;101291.48;1851288;75;23274;-53
2021/03/02 07:20:18;;;;;;;31.42;21.55;;;;;;;2.09;79.64;101292.28;1827166;77;20985;-53
2021/03/02 07:22:58;;;;;;;35.38;21.45;;;;;;;2.15;79.76;101299.62;1781454;78;22752;-54
2021/03/02 07:25:39;;;;;;;31.73;19.52;;;;;;;2.10;79.61;101292.61;1755596;79;20998;-54
2021/03/02 07:28:07;;;;;;;32.90;20.05;;;;;;;2.15;79.33;101298.79;1758367;79;22220;-53
2021/03/02 07:30:44;;;;;;;35.85;21.65;;;;;;;2.16;79.35;101292.31;1735123;80;21077;-54
2021/03/02 07:33:15;;;;;;;34.85;21.60;;;;;;;2.23;79.44;101294.59;1767823;79;21424;-54
2021/03/02 07:35:44;;;;;;;37.30;22.65;;;;;;;2.31;79.19;101294.42;1762662;79;21122;-55
2021/03/02 07:38:27;;;;;;;34.18;22.30;;;;;;;2.39;79.17;101295.63;1775646;79;22497;-55
2021/03/02 07:40:56;;;;;;;35.35;20.95;;;;;;;2.38;78.95;101297.19;1741781;80;21039;-55
2021/03/02 07:43:37;;;;;;;37.95;23.00;;;;;;;2.40;78.70;101287.83;1742058;80;21074;-55
2021/03/02 07:46:40;;;;;;;36.98;23.10;;;;;;;2.39;78.48;101279.36;1749805;80;21003;-55
2021/03/02 07:49:28;;;;;;;37.80;22.73;;;;;;;2.38;78.67;101274.97;1710749;81;21013;-54
2021/03/02 07:52:12;;;;;;;39.15;22.22;;;;;;;2.43;78.28;101266.27;1692479;83;21534;-55
2021/03/02 07:54:44;;;;;;;39.58;24.65;;;;;;;2.46;78.15;101267.71;1714107;81;20980;-54
2021/03/02 07:57:23;;;;;;;43.58;26.00;;;;;;;2.49;77.96;101267.34;1743567;80;21394;-55
2021/03/02 08:00:21;;;;;;;46.63;24.20;;;;;;;2.46;77.93;101266.36;1741476;80;22479;-55
2021/03/02 08:03:20;;;;;;;41.37;24.57;;;;;;;2.44;78.06;101259.78;1742702;80;21085;-54
2021/03/02 08:06:01;;;;;;;51.53;31.07;;;;;;;2.50;77.85;101245.94;1854419;75;22899;-53
2021/03/02 08:08:30;;;;;;;45.98;27.52;;;;;;;2.46;77.88;101252.30;1824375;76;21071;-55
2021/03/02 08:11:05;;;;;;;46.00;25.50;;;;;;;2.48;77.80;101251.56;1829575;76;21178;-54
2021/03/02 08:13:40;;;;;;;43.20;24.50;;;;;;;2.52;77.56;101246.59;1824768;76;21018;-55
2021/03/02 08:16:13;;;;;;;46.48;26.30;;;;;;;2.48;77.70;101252.92;1825457;76;21017;-55
2021/03/02 08:18:43;;;;;;;52.90;34.33;;;;;;;2.49;77.71;101247.83;1828390;76;20966;-54
2021/03/02 08:21:16;;;;;;;63.17;41.30;;;;;;;2.48;77.76;101241.25;1837161;76;21499;-55
2021/03/02 08:23:56;;;;;;;46.28;28.65;;;;;;;2.49;77.96;101237.51;1745337;80;21265;-54
2021/03/02 08:26:33;;;;;;;48.87;31.68;;;;;;;2.53;77.93;101234.69;1761542;80;21015;-54
2021/03/02 08:29:29;;;;;;;43.68;29.67;;;;;;;2.56;77.73;101237.85;1767654;78;21036;-54
2021/03/02 08:32:03;;;;;;;43.90;26.30;;;;;;;2.60;77.38;101231.48;1767740;78;22006;-55
2021/03/02 08:35:12;;;;;;;44.15;27.25;;;;;;;2.70;77.32;101224.34;1768558;78;22822;-55
2021/03/02 08:37:47;;;;;;;44.45;26.80;;;;;;;2.69;77.23;101230.30;1743636;80;21091;-54
2021/03/02 08:40:32;;;;;;;41.28;24.15;;;;;;;2.79;76.93;101213.66;1752377;80;21481;-53
2021/03/02 08:43:21;;;;;;;43.92;24.30;;;;;;;2.84;76.50;101229.32;1766585;79;20981;-54
2021/03/02 08:46:01;;;;;;;40.40;24.12;;;;;;;2.80;76.42;101238.40;1746528;80;20981;-52
2021/03/02 08:48:36;;;;;;;41.20;24.82;;;;;;;2.86;76.36;101250.30;1753386;79;20997;-55
2021/03/02 08:51:08;;;;;;;47.38;27.13;;;;;;;2.84;76.32;101245.60;1752057;80;21013;-55
2021/03/02 08:53:45;;;;;;;38.45;23.87;;;;;;;2.81;76.31;101236.52;1750738;79;22100;-54
2021/03/02 08:56:24;;;;;;;38.83;23.27;;;;;;;2.76;76.43;101225.74;1761159;79;21041;-55
2021/03/02 08:59:06;;;;;;;48.35;27.80;;;;;;;2.73;76.53;101222.08;1756695;79;20999;-53
2021/03/02 09:01:39;;;;;;;58.00;34.75;;;;;;;2.75;76.62;101235.44;1749415;79;21014;-56
2021/03/02 09:04:17;;;;;;;51.98;27.90;;;;;;;2.77;76.53;101242.84;1753137;79;20991;-54
2021/03/02 09:06:53;;;;;;;43.42;24.70;;;;;;;2.81;76.25;101235.16;1733270;81;21377;-54
2021/03/02 09:09:27;;;;;;;47.73;25.95;;;;;;;2.85;76.27;101236.43;1695262;82;21828;-54
2021/03/02 09:11:59;;;;;;;39.13;23.38;;;;;;;2.89;75.97;101249.91;1701476;82;21019;-54
2021/03/02 09:14:34;;;;;;;41.45;25.35;;;;;;;2.88;76.09;101246.87;1705898;82;21034;-55
2021/03/02 09:17:09;;;;;;;40.38;27.35;;;;;;;2.91;76.18;101245.94;1700766;83;21013;-54
2021/03/02 09:19:41;;;;;;;35.90;21.90;;;;;;;2.99;75.95;101228.66;1715583;81;21351;-55
2021/03/02 09:22:17;;;;;;;40.50;25.50;;;;;;;3.04;75.64;101227.50;1710475;82;21581;-53
2021/03/02 09:24:55;;;;;;;38.02;22.93;;;;;;;3.02;75.49;101221.45;1703351;82;21208;-53
2021/03/02 09:27:37;;;;;;;39.95;24.77;;;;;;;2.99;75.67;101219.69;1706314;82;21390;-53
2021/03/02 09:30:08;;;;;;;39.83;23.35;;;;;;;2.99;75.51;101214.27;1710820;81;21603;-53
2021/03/02 09:32:45;;;;;;;41.30;24.72;;;;;;;2.97;75.65;101209.00;1689245;82;21061;-51
2021/03/02 09:35:14;;;;;;;33.78;23.00;;;;;;;2.97;75.58;101208.18;1689405;82;21080;-53
2021/03/02 09:37:44;;;;;;;35.03;21.97;;;;;;;2.96;75.64;101209.21;1698992;81;21060;-54
2021/03/02 09:40:13;;;;;;;39.78;24.32;;;;;;;2.99;75.60;101227.83;1713073;82;21012;-53
2021/03/02 09:45:36;;;;;;;44.03;22.70;;;;;;;3.09;75.48;101217.42;1807964;77;22864;-52
2021/03/02 09:48:08;;;;;;;32.40;19.82;;;;;;;3.00;75.59;101218.12;1787452;79;20982;-52
2021/03/02 09:50:38;;;;;;;39.18;24.57;;;;;;;3.01;75.70;101217.06;1783043;79;21363;-53
2021/03/02 09:53:15;;;;;;;46.63;27.42;;;;;;;3.06;75.69;101217.30;1787424;79;21111;-53
2021/03/02 09:55:48;;;;;;;50.00;33.13;;;;;;;3.08;75.63;101234.20;1790898;78;20959;-53
2021/03/02 09:58:22;;;;;;;;;;;;;;;3.10;75.56;101224.00;1800384;79;20979;-52
2021/03/02 10:00:57;;;;;;;41.58;23.27;;;;;;;3.10;75.62;101228.06;1787058;78;20179;-53
2021/03/02 10:03:24;;;;;;;43.30;28.20;;;;;;;3.15;75.62;101211.16;1788892;78;21097;-51
2021/03/02 10:05:57;;;;;;;44.85;28.02;;;;;;;3.18;75.50;101216.70;1786588;78;20983;-53
2021/03/02 10:08:34;;;;;;;41.05;26.25;;;;;;;3.20;75.45;101207.32;1794209;78;20978;-55
2021/03/02 10:11:16;;;;;;;44.55;23.83;;;;;;;3.26;75.29;101211.09;1799325;78;20958;-54
2021/03/02 10:13:55;;;;;;;38.58;23.52;;;;;;;3.24;75.13;101205.88;1789363;79;20966;-56
2021/03/02 10:16:42;;;;;;;37.67;19.45;;;;;;;3.27;75.15;101185.09;1799168;78;21383;-56
2021/03/02 10:19:19;;;;;;;41.55;23.95;;;;;;;3.32;74.86;101180.39;1783901;78;20990;-53
2021/03/02 10:21:50;;;;;;;39.27;22.65;;;;;;;3.22;74.75;101164.50;1785990;79;20990;-53
2021/03/02 10:24:27;;;;;;;40.83;26.17;;;;;;;3.16;74.97;101170.77;1782747;78;20936;-55
2021/03/02 10:26:58;;;;;;;41.30;23.75;;;;;;;3.15;75.03;101147.89;1785864;79;22086;-54
2021/03/02 10:29:32;;;;;;;39.40;24.12;;;;;;;3.18;75.14;101146.12;1795435;78;21357;-54
2021/03/02 10:32:02;;;;;;;44.48;26.60;;;;;;;3.26;75.13;101147.28;1797269;78;21069;-56
2021/03/02 10:34:37;;;;;;;44.95;25.10;;;;;;;3.27;75.01;101137.57;1787651;79;20993;-54
2021/03/02 10:37:06;;;;;;;47.10;29.80;;;;;;;3.27;74.85;101134.00;1764778;80;21050;-55
2021/03/02 10:39:36;;;;;;;40.20;24.90;;;;;;;3.31;74.90;101130.36;1727802;80;20970;-55
2021/03/02 10:42:05;;;;;;;41.98;23.87;;;;;;;3.36;74.57;101139.56;1760390;79;21260;-55
2021/03/02 10:44:33;;;;;;;61.95;33.33;;;;;;;3.32;74.30;101135.58;1743786;79;21003;-55
2021/03/02 10:47:04;;;;;;;51.08;32.08;;;;;;;3.30;74.51;101134.94;1725115;80;20989;-53
2021/03/02 10:49:31;;;;;;;51.28;29.95;;;;;;;3.26;74.87;101126.92;1726000;80;21028;-55
2021/03/02 10:52:00;;;;;;;54.33;31.02;;;;;;;3.33;74.65;101125.05;1723218;80;21006;-54
2021/03/02 10:54:33;;;;;;;44.42;25.12;;;;;;;3.31;74.34;101114.89;1714595;80;22130;-55
2021/03/02 10:57:06;;;;;;;46.18;26.73;;;;;;;3.28;74.19;101113.42;1717991;80;21520;-55
2021/03/02 10:59:36;;;;;;;51.05;29.77;;;;;;;3.31;74.31;101114.07;1718325;80;21010;-54
2021/03/02 11:02:04;;;;;;;53.42;30.05;;;;;;;3.36;74.38;101112.41;1742721;79;22070;-54
2021/03/02 11:04:33;;;;;;;52.27;29.95;;;;;;;3.42;74.32;101106.66;1747092;79;22027;-55
2021/03/02 11:07:02;;;;;;;44.90;25.97;;;;;;;3.46;73.87;101108.73;1757976;79;22400;-55
2021/03/02 11:09:30;;;;;;;46.42;26.93;;;;;;;3.44;73.58;101116.28;1750419;79;21021;-54
2021/03/02 11:11:57;;;;;;;162.68;86.10;;;;;;;3.43;73.52;101106.45;1747911;79;21003;-55
2021/03/02 11:14:28;;;;;;;58.87;33.18;;;;;;;3.43;73.67;101104.23;1751205;79;20997;-55
2021/03/02 11:16:56;;;;;;;52.03;29.27;;;;;;;3.44;73.46;101097.27;1751287;79;21560;-55
2021/03/02 11:19:29;;;;;;;56.35;30.12;;;;;;;3.41;73.50;101094.94;1746202;79;21381;-56
2021/03/02 11:22:02;;;;;;;54.48;31.57;;;;;;;3.41;73.63;101084.08;1745057;79;20959;-54
2021/03/02 11:24:37;;;;;;;53.83;32.85;;;;;;;3.48;73.62;101079.19;1744709;79;20983;-55
2021/03/02 11:27:06;;;;;;;45.15;28.47;;;;;;;3.51;73.53;101072.79;1749158;79;21656;-58
2021/03/02 11:29:36;;;;;;;47.20;27.10;;;;;;;3.54;73.33;101071.54;1748435;79;20942;-55
2021/03/02 11:32:15;;;;;;;45.98;26.50;;;;;;;3.59;72.92;101080.73;1854339;75;22700;-54
2021/03/02 11:34:46;;;;;;;54.67;34.23;;;;;;;3.55;73.02;101073.22;1822150;76;21062;-53
2021/03/02 11:37:15;;;;;;;55.67;32.55;;;;;;;3.56;73.18;101069.47;1824476;77;23020;-55
2021/03/02 11:39:44;;;;;;;55.38;30.75;;;;;;;3.61;72.84;101071.01;1825336;77;21009;-54
2021/03/02 11:42:11;;;;;;;61.37;33.95;;;;;;;3.66;72.72;101070.37;1822259;77;21018;-54
2021/03/02 11:44:43;;;;;;;59.38;35.33;;;;;;;3.71;72.34;101064.61;1822093;76;21191;-54
2021/03/02 11:47:12;;;;;;;67.97;33.48;;;;;;;3.73;72.24;101062.53;1823962;76;21712;-52
2021/03/02 11:49:41;;;;;;;52.73;29.92;;;;;;;3.77;72.15;101045.27;1828124;77;22271;-53
2021/03/02 11:52:09;;;;;;;51.10;30.68;;;;;;;3.77;71.78;101059.70;1825052;77;21524;-53
2021/03/02 11:54:37;;;;;;;51.70;29.18;;;;;;;3.78;71.51;101050.48;1832232;77;21161;-53
2021/03/02 11:57:06;;;;;;;60.92;32.95;;;;;;;3.74;71.50;101046.52;1825231;76;21006;-54